sensor_id;sensor_type;location;lat;lon;timestamp;P1;durP1;ratioP1;P2;durP2;ratioP2
18455;SDS011;9357;49.900;8.208;2024-02-23T00:00:27;3.40;;;1.02;;
18455;SDS011;9357;49.900;8.208;2024-02-23T00:01:59;2.40;;;0.97;;
18455;SDS011;9357;49.900;8.208;2024-02-23T00:03:33;3.08;;;0.90;;
18455;SDS011;9357;49.900;8.208;2024-02-23T00:05:06;1.92;;;0.80;;
18455;SDS011;9357;49.900;8.208;2024-02-23T00:06:39;0.80;;;0.80;;
18455;SDS011;9357;49.900;8.208;2024-02-23T00:08:11;2.70;;;1.10;;
18455;SDS011;9357;49.900;8.208;2024-02-23T00:09:45;3.35;;;1.08;;
18455;SDS011;9357;49.900;8.208;2024-02-23T00:11:18;4.97;;;1.20;;
18455;SDS011;9357;49.900;8.208;2024-02-23T00:12:51;3.92;;;1.02;;
18455;SDS011;9357;49.900;8.208;2024-02-23T00:14:23;2.90;;;1.10;;
18455;SDS011;9357;49.900;8.208;2024-02-23T00:15:56;4.28;;;1.05;;
18455;SDS011;9357;49.900;8.208;2024-02-23T00:17:28;2.10;;;0.88;;
18455;SDS011;9357;49.900;8.208;2024-02-23T00:19:01;3.97;;;0.90;;
18455;SDS011;9357;49.900;8.208;2024-02-23T00:20:32;2.03;;;0.70;;
18455;SDS011;9357;49.900;8.208;2024-02-23T00:22:05;2.55;;;0.82;;
18455;SDS011;9357;49.900;8.208;2024-02-23T00:23:39;2.97;;;1.17;;
18455;SDS011;9357;49.900;8.208;2024-02-23T00:25:11;2.22;;;0.90;;
18455;SDS011;9357;49.900;8.208;2024-02-23T00:26:45;3.05;;;1.00;;
18455;SDS011;9357;49.900;8.208;2024-02-23T00:28:17;4.72;;;0.95;;
18455;SDS011;9357;49.900;8.208;2024-02-23T00:29:50;3.20;;;0.90;;
18455;SDS011;9357;49.900;8.208;2024-02-23T00:31:21;2.22;;;0.85;;
18455;SDS011;9357;49.900;8.208;2024-02-23T00:32:55;3.55;;;0.93;;
18455;SDS011;9357;49.900;8.208;2024-02-23T00:34:27;2.17;;;0.93;;
18455;SDS011;9357;49.900;8.208;2024-02-23T00:36:01;3.22;;;0.90;;
18455;SDS011;9357;49.900;8.208;2024-02-23T00:37:33;2.10;;;0.90;;
18455;SDS011;9357;49.900;8.208;2024-02-23T00:39:06;3.10;;;0.90;;
18455;SDS011;9357;49.900;8.208;2024-02-23T00:40:39;2.60;;;0.80;;
18455;SDS011;9357;49.900;8.208;2024-02-23T00:42:13;2.83;;;0.77;;
18455;SDS011;9357;49.900;8.208;2024-02-23T00:43:46;1.33;;;0.80;;
18455;SDS011;9357;49.900;8.208;2024-02-23T00:45:18;2.47;;;0.82;;
18455;SDS011;9357;49.900;8.208;2024-02-23T00:46:52;2.00;;;0.77;;
18455;SDS011;9357;49.900;8.208;2024-02-23T00:48:24;1.35;;;0.80;;
18455;SDS011;9357;49.900;8.208;2024-02-23T00:49:57;1.40;;;0.75;;
18455;SDS011;9357;49.900;8.208;2024-02-23T00:51:29;1.00;;;0.90;;
18455;SDS011;9357;49.900;8.208;2024-02-23T00:53:01;2.92;;;0.90;;
18455;SDS011;9357;49.900;8.208;2024-02-23T00:54:33;2.95;;;1.00;;
18455;SDS011;9357;49.900;8.208;2024-02-23T00:56:06;2.38;;;0.80;;
18455;SDS011;9357;49.900;8.208;2024-02-23T00:57:39;2.85;;;0.80;;
18455;SDS011;9357;49.900;8.208;2024-02-23T00:59:12;2.05;;;0.80;;
18455;SDS011;9357;49.900;8.208;2024-02-23T01:00:44;2.13;;;0.77;;
18455;SDS011;9357;49.900;8.208;2024-02-23T01:02:17;1.77;;;0.80;;
18455;SDS011;9357;49.900;8.208;2024-02-23T01:03:49;2.60;;;0.73;;
18455;SDS011;9357;49.900;8.208;2024-02-23T01:05:23;2.75;;;1.00;;
18455;SDS011;9357;49.900;8.208;2024-02-23T01:06:54;2.55;;;0.90;;
18455;SDS011;9357;49.900;8.208;2024-02-23T01:08:27;1.30;;;0.68;;
18455;SDS011;9357;49.900;8.208;2024-02-23T01:09:59;2.13;;;0.95;;
18455;SDS011;9357;49.900;8.208;2024-02-23T01:11:32;3.15;;;1.00;;
18455;SDS011;9357;49.900;8.208;2024-02-23T01:13:06;2.17;;;0.98;;
18455;SDS011;9357;49.900;8.208;2024-02-23T01:14:38;3.13;;;1.05;;
18455;SDS011;9357;49.900;8.208;2024-02-23T01:16:10;1.70;;;0.68;;
18455;SDS011;9357;49.900;8.208;2024-02-23T01:17:43;1.83;;;0.65;;
18455;SDS011;9357;49.900;8.208;2024-02-23T01:19:15;0.43;;;0.43;;
18455;SDS011;9357;49.900;8.208;2024-02-23T01:20:48;1.10;;;0.50;;
18455;SDS011;9357;49.900;8.208;2024-02-23T01:22:20;0.90;;;0.40;;
18455;SDS011;9357;49.900;8.208;2024-02-23T01:23:52;0.47;;;0.40;;
18455;SDS011;9357;49.900;8.208;2024-02-23T01:25:24;0.52;;;0.40;;
18455;SDS011;9357;49.900;8.208;2024-02-23T01:26:57;1.35;;;0.50;;
18455;SDS011;9357;49.900;8.208;2024-02-23T01:28:31;0.98;;;0.55;;
18455;SDS011;9357;49.900;8.208;2024-02-23T01:30:04;3.45;;;0.60;;
18455;SDS011;9357;49.900;8.208;2024-02-23T01:31:37;3.60;;;0.70;;
18455;SDS011;9357;49.900;8.208;2024-02-23T01:33:10;1.88;;;0.50;;
18455;SDS011;9357;49.900;8.208;2024-02-23T01:34:42;0.47;;;0.28;;
18455;SDS011;9357;49.900;8.208;2024-02-23T01:36:14;0.90;;;0.65;;
18455;SDS011;9357;49.900;8.208;2024-02-23T01:37:46;1.55;;;0.52;;
18455;SDS011;9357;49.900;8.208;2024-02-23T01:39:19;1.02;;;0.65;;
18455;SDS011;9357;49.900;8.208;2024-02-23T01:40:51;0.40;;;0.40;;
18455;SDS011;9357;49.900;8.208;2024-02-23T01:42:23;3.65;;;0.50;;
18455;SDS011;9357;49.900;8.208;2024-02-23T01:43:58;1.48;;;0.70;;
18455;SDS011;9357;49.900;8.208;2024-02-23T01:45:31;2.25;;;0.93;;
18455;SDS011;9357;49.900;8.208;2024-02-23T01:47:03;1.30;;;0.50;;
18455;SDS011;9357;49.900;8.208;2024-02-23T01:48:36;0.65;;;0.60;;
18455;SDS011;9357;49.900;8.208;2024-02-23T01:50:09;1.00;;;0.80;;
18455;SDS011;9357;49.900;8.208;2024-02-23T01:51:43;2.35;;;0.68;;
18455;SDS011;9357;49.900;8.208;2024-02-23T01:53:16;0.77;;;0.50;;
18455;SDS011;9357;49.900;8.208;2024-02-23T01:54:50;2.13;;;0.60;;
18455;SDS011;9357;49.900;8.208;2024-02-23T01:56:23;2.45;;;0.70;;
18455;SDS011;9357;49.900;8.208;2024-02-23T01:57:56;3.00;;;0.80;;
18455;SDS011;9357;49.900;8.208;2024-02-23T01:59:30;1.65;;;0.75;;
18455;SDS011;9357;49.900;8.208;2024-02-23T02:01:03;1.83;;;0.98;;
18455;SDS011;9357;49.900;8.208;2024-02-23T02:02:35;1.70;;;0.88;;
18455;SDS011;9357;49.900;8.208;2024-02-23T02:04:08;3.30;;;0.60;;
18455;SDS011;9357;49.900;8.208;2024-02-23T02:05:39;1.77;;;0.70;;
18455;SDS011;9357;49.900;8.208;2024-02-23T02:07:12;1.58;;;0.65;;
18455;SDS011;9357;49.900;8.208;2024-02-23T02:08:44;0.52;;;0.50;;
18455;SDS011;9357;49.900;8.208;2024-02-23T02:10:18;2.15;;;0.80;;
18455;SDS011;9357;49.900;8.208;2024-02-23T02:11:52;1.48;;;0.73;;
18455;SDS011;9357;49.900;8.208;2024-02-23T02:13:25;3.15;;;0.60;;
18455;SDS011;9357;49.900;8.208;2024-02-23T02:14:58;3.28;;;0.57;;
18455;SDS011;9357;49.900;8.208;2024-02-23T02:16:32;2.25;;;0.80;;
18455;SDS011;9357;49.900;8.208;2024-02-23T02:18:04;1.42;;;0.70;;
18455;SDS011;9357;49.900;8.208;2024-02-23T02:19:37;2.38;;;0.80;;
18455;SDS011;9357;49.900;8.208;2024-02-23T02:21:09;2.05;;;0.70;;
18455;SDS011;9357;49.900;8.208;2024-02-23T02:22:42;1.58;;;0.93;;
18455;SDS011;9357;49.900;8.208;2024-02-23T02:24:13;1.88;;;0.70;;
18455;SDS011;9357;49.900;8.208;2024-02-23T02:25:51;2.00;;;0.98;;
18455;SDS011;9357;49.900;8.208;2024-02-23T02:27:23;2.38;;;0.70;;
18455;SDS011;9357;49.900;8.208;2024-02-23T02:28:56;4.78;;;0.80;;
18455;SDS011;9357;49.900;8.208;2024-02-23T02:30:29;2.03;;;0.75;;
18455;SDS011;9357;49.900;8.208;2024-02-23T02:32:02;2.65;;;0.90;;
18455;SDS011;9357;49.900;8.208;2024-02-23T02:33:34;2.05;;;0.82;;
18455;SDS011;9357;49.900;8.208;2024-02-23T02:35:07;1.95;;;0.77;;
18455;SDS011;9357;49.900;8.208;2024-02-23T02:36:41;1.67;;;0.70;;
18455;SDS011;9357;49.900;8.208;2024-02-23T02:38:14;2.25;;;0.85;;
18455;SDS011;9357;49.900;8.208;2024-02-23T02:39:46;3.42;;;0.68;;
18455;SDS011;9357;49.900;8.208;2024-02-23T02:41:19;3.03;;;0.90;;
18455;SDS011;9357;49.900;8.208;2024-02-23T02:42:52;3.50;;;0.82;;
18455;SDS011;9357;49.900;8.208;2024-02-23T02:44:24;3.85;;;1.20;;
18455;SDS011;9357;49.900;8.208;2024-02-23T02:45:59;4.78;;;0.85;;
18455;SDS011;9357;49.900;8.208;2024-02-23T02:47:30;3.42;;;0.80;;
18455;SDS011;9357;49.900;8.208;2024-02-23T02:49:03;3.15;;;0.95;;
18455;SDS011;9357;49.900;8.208;2024-02-23T02:50:36;3.53;;;0.95;;
18455;SDS011;9357;49.900;8.208;2024-02-23T02:52:09;3.22;;;0.90;;
18455;SDS011;9357;49.900;8.208;2024-02-23T02:53:42;1.80;;;1.00;;
18455;SDS011;9357;49.900;8.208;2024-02-23T02:55:13;5.47;;;0.90;;
18455;SDS011;9357;49.900;8.208;2024-02-23T02:56:47;2.40;;;0.90;;
18455;SDS011;9357;49.900;8.208;2024-02-23T02:58:21;3.22;;;0.90;;
18455;SDS011;9357;49.900;8.208;2024-02-23T02:59:53;3.08;;;1.02;;
18455;SDS011;9357;49.900;8.208;2024-02-23T03:01:27;3.55;;;0.90;;
18455;SDS011;9357;49.900;8.208;2024-02-23T03:02:59;2.80;;;0.70;;
18455;SDS011;9357;49.900;8.208;2024-02-23T03:04:32;4.03;;;0.70;;
18455;SDS011;9357;49.900;8.208;2024-02-23T03:06:04;1.98;;;0.73;;
18455;SDS011;9357;49.900;8.208;2024-02-23T03:07:38;0.75;;;0.60;;
18455;SDS011;9357;49.900;8.208;2024-02-23T03:09:10;2.92;;;0.85;;
18455;SDS011;9357;49.900;8.208;2024-02-23T03:10:42;4.40;;;0.90;;
18455;SDS011;9357;49.900;8.208;2024-02-23T03:12:15;4.05;;;1.25;;
18455;SDS011;9357;49.900;8.208;2024-02-23T03:13:47;3.17;;;1.25;;
18455;SDS011;9357;49.900;8.208;2024-02-23T03:15:20;2.88;;;1.20;;
18455;SDS011;9357;49.900;8.208;2024-02-23T03:16:53;2.88;;;1.27;;
18455;SDS011;9357;49.900;8.208;2024-02-23T03:18:26;3.00;;;1.08;;
18455;SDS011;9357;49.900;8.208;2024-02-23T03:19:59;4.72;;;1.15;;
18455;SDS011;9357;49.900;8.208;2024-02-23T03:21:31;2.72;;;1.20;;
18455;SDS011;9357;49.900;8.208;2024-02-23T03:23:06;2.47;;;1.40;;
18455;SDS011;9357;49.900;8.208;2024-02-23T03:24:39;3.58;;;1.30;;
18455;SDS011;9357;49.900;8.208;2024-02-23T03:26:11;2.28;;;1.10;;
18455;SDS011;9357;49.900;8.208;2024-02-23T03:27:47;2.75;;;1.40;;
18455;SDS011;9357;49.900;8.208;2024-02-23T03:29:20;3.10;;;1.23;;
18455;SDS011;9357;49.900;8.208;2024-02-23T03:30:53;4.93;;;1.35;;
18455;SDS011;9357;49.900;8.208;2024-02-23T03:32:27;2.58;;;1.45;;
18455;SDS011;9357;49.900;8.208;2024-02-23T03:33:59;4.60;;;1.55;;
18455;SDS011;9357;49.900;8.208;2024-02-23T03:35:32;8.13;;;1.50;;
18455;SDS011;9357;49.900;8.208;2024-02-23T03:37:04;2.83;;;1.27;;
18455;SDS011;9357;49.900;8.208;2024-02-23T03:38:37;2.45;;;1.20;;
18455;SDS011;9357;49.900;8.208;2024-02-23T03:40:09;4.47;;;1.40;;
18455;SDS011;9357;49.900;8.208;2024-02-23T03:41:43;3.67;;;1.20;;
18455;SDS011;9357;49.900;8.208;2024-02-23T03:43:15;3.55;;;1.38;;
18455;SDS011;9357;49.900;8.208;2024-02-23T03:44:48;1.95;;;1.10;;
18455;SDS011;9357;49.900;8.208;2024-02-23T03:46:20;4.45;;;1.40;;
18455;SDS011;9357;49.900;8.208;2024-02-23T03:47:54;5.25;;;1.63;;
18455;SDS011;9357;49.900;8.208;2024-02-23T03:49:26;4.35;;;1.13;;
18455;SDS011;9357;49.900;8.208;2024-02-23T03:50:59;5.47;;;1.38;;
18455;SDS011;9357;49.900;8.208;2024-02-23T03:52:31;2.13;;;1.23;;
18455;SDS011;9357;49.900;8.208;2024-02-23T03:54:04;5.70;;;1.70;;
18455;SDS011;9357;49.900;8.208;2024-02-23T03:55:36;2.95;;;1.40;;
18455;SDS011;9357;49.900;8.208;2024-02-23T03:57:09;5.28;;;1.30;;
18455;SDS011;9357;49.900;8.208;2024-02-23T03:58:40;3.08;;;1.30;;
18455;SDS011;9357;49.900;8.208;2024-02-23T04:00:13;2.38;;;1.50;;
18455;SDS011;9357;49.900;8.208;2024-02-23T04:01:47;2.92;;;1.42;;
18455;SDS011;9357;49.900;8.208;2024-02-23T04:03:20;4.35;;;2.00;;
18455;SDS011;9357;49.900;8.208;2024-02-23T04:04:53;2.53;;;1.80;;
18455;SDS011;9357;49.900;8.208;2024-02-23T04:06:25;1.63;;;1.30;;
18455;SDS011;9357;49.900;8.208;2024-02-23T04:07:58;2.25;;;1.58;;
18455;SDS011;9357;49.900;8.208;2024-02-23T04:09:30;2.42;;;1.45;;
18455;SDS011;9357;49.900;8.208;2024-02-23T04:11:03;3.85;;;1.48;;
18455;SDS011;9357;49.900;8.208;2024-02-23T04:12:35;2.00;;;1.42;;
18455;SDS011;9357;49.900;8.208;2024-02-23T04:14:08;4.43;;;1.90;;
18455;SDS011;9357;49.900;8.208;2024-02-23T04:15:41;1.83;;;1.58;;
18455;SDS011;9357;49.900;8.208;2024-02-23T04:17:12;3.47;;;1.63;;
18455;SDS011;9357;49.900;8.208;2024-02-23T04:18:47;1.75;;;1.55;;
18455;SDS011;9357;49.900;8.208;2024-02-23T04:20:19;3.45;;;1.70;;
18455;SDS011;9357;49.900;8.208;2024-02-23T04:21:52;2.40;;;1.55;;
18455;SDS011;9357;49.900;8.208;2024-02-23T04:23:23;2.70;;;1.60;;
18455;SDS011;9357;49.900;8.208;2024-02-23T04:24:56;3.72;;;1.75;;
18455;SDS011;9357;49.900;8.208;2024-02-23T04:26:28;3.90;;;1.90;;
18455;SDS011;9357;49.900;8.208;2024-02-23T04:28:01;4.75;;;1.98;;
18455;SDS011;9357;49.900;8.208;2024-02-23T04:29:32;3.75;;;1.70;;
18455;SDS011;9357;49.900;8.208;2024-02-23T04:31:06;4.60;;;1.80;;
18455;SDS011;9357;49.900;8.208;2024-02-23T04:32:39;3.28;;;1.60;;
18455;SDS011;9357;49.900;8.208;2024-02-23T04:34:13;4.78;;;1.70;;
18455;SDS011;9357;49.900;8.208;2024-02-23T04:35:46;2.55;;;1.63;;
18455;SDS011;9357;49.900;8.208;2024-02-23T04:37:19;3.97;;;1.77;;
18455;SDS011;9357;49.900;8.208;2024-02-23T04:38:51;3.47;;;1.60;;
18455;SDS011;9357;49.900;8.208;2024-02-23T04:40:23;4.22;;;1.95;;
18455;SDS011;9357;49.900;8.208;2024-02-23T04:41:56;3.80;;;1.75;;
18455;SDS011;9357;49.900;8.208;2024-02-23T04:43:28;2.92;;;1.52;;
18455;SDS011;9357;49.900;8.208;2024-02-23T04:45:00;2.17;;;1.35;;
18455;SDS011;9357;49.900;8.208;2024-02-23T04:46:32;3.90;;;1.70;;
18455;SDS011;9357;49.900;8.208;2024-02-23T04:48:06;3.95;;;1.58;;
18455;SDS011;9357;49.900;8.208;2024-02-23T04:49:40;2.90;;;1.40;;
18455;SDS011;9357;49.900;8.208;2024-02-23T04:51:12;2.88;;;1.48;;
18455;SDS011;9357;49.900;8.208;2024-02-23T04:52:44;1.90;;;1.30;;
18455;SDS011;9357;49.900;8.208;2024-02-23T04:54:17;4.68;;;1.45;;
18455;SDS011;9357;49.900;8.208;2024-02-23T04:55:49;6.57;;;1.50;;
18455;SDS011;9357;49.900;8.208;2024-02-23T04:57:21;4.25;;;1.90;;
18455;SDS011;9357;49.900;8.208;2024-02-23T04:58:53;4.45;;;1.27;;
18455;SDS011;9357;49.900;8.208;2024-02-23T05:00:26;4.38;;;1.30;;
18455;SDS011;9357;49.900;8.208;2024-02-23T05:02:04;3.08;;;1.67;;
18455;SDS011;9357;49.900;8.208;2024-02-23T05:03:37;4.85;;;1.40;;
18455;SDS011;9357;49.900;8.208;2024-02-23T05:05:10;2.17;;;1.15;;
18455;SDS011;9357;49.900;8.208;2024-02-23T05:06:43;4.30;;;1.70;;
18455;SDS011;9357;49.900;8.208;2024-02-23T05:08:16;4.15;;;1.70;;
18455;SDS011;9357;49.900;8.208;2024-02-23T05:09:48;5.07;;;1.77;;
18455;SDS011;9357;49.900;8.208;2024-02-23T05:11:21;2.97;;;1.48;;
18455;SDS011;9357;49.900;8.208;2024-02-23T05:12:53;3.08;;;1.55;;
18455;SDS011;9357;49.900;8.208;2024-02-23T05:14:26;5.43;;;2.03;;
18455;SDS011;9357;49.900;8.208;2024-02-23T05:15:59;4.80;;;1.90;;
18455;SDS011;9357;49.900;8.208;2024-02-23T05:17:31;2.58;;;1.50;;
18455;SDS011;9357;49.900;8.208;2024-02-23T05:19:04;2.78;;;1.45;;
18455;SDS011;9357;49.900;8.208;2024-02-23T05:20:37;7.35;;;1.73;;
18455;SDS011;9357;49.900;8.208;2024-02-23T05:22:10;4.70;;;1.55;;
18455;SDS011;9357;49.900;8.208;2024-02-23T05:23:42;4.68;;;1.30;;
18455;SDS011;9357;49.900;8.208;2024-02-23T05:25:14;4.80;;;1.52;;
18455;SDS011;9357;49.900;8.208;2024-02-23T05:26:46;5.80;;;2.00;;
18455;SDS011;9357;49.900;8.208;2024-02-23T05:28:19;3.45;;;1.60;;
18455;SDS011;9357;49.900;8.208;2024-02-23T05:29:51;3.03;;;1.58;;
18455;SDS011;9357;49.900;8.208;2024-02-23T05:31:42;5.78;;;1.90;;
18455;SDS011;9357;49.900;8.208;2024-02-23T05:33:16;4.65;;;1.70;;
18455;SDS011;9357;49.900;8.208;2024-02-23T05:34:51;3.05;;;1.50;;
18455;SDS011;9357;49.900;8.208;2024-02-23T05:36:26;6.57;;;1.95;;
18455;SDS011;9357;49.900;8.208;2024-02-23T05:37:59;5.47;;;1.67;;
18455;SDS011;9357;49.900;8.208;2024-02-23T05:39:31;5.30;;;1.83;;
18455;SDS011;9357;49.900;8.208;2024-02-23T05:41:04;4.88;;;1.80;;
18455;SDS011;9357;49.900;8.208;2024-02-23T05:42:36;4.25;;;2.00;;
18455;SDS011;9357;49.900;8.208;2024-02-23T05:44:10;4.13;;;1.75;;
18455;SDS011;9357;49.900;8.208;2024-02-23T05:45:42;3.67;;;1.70;;
18455;SDS011;9357;49.900;8.208;2024-02-23T05:47:16;4.85;;;1.90;;
18455;SDS011;9357;49.900;8.208;2024-02-23T05:48:48;4.43;;;1.95;;
18455;SDS011;9357;49.900;8.208;2024-02-23T05:50:21;4.63;;;1.75;;
18455;SDS011;9357;49.900;8.208;2024-02-23T05:51:55;3.95;;;1.80;;
18455;SDS011;9357;49.900;8.208;2024-02-23T05:53:27;3.28;;;1.85;;
18455;SDS011;9357;49.900;8.208;2024-02-23T05:55:04;4.40;;;2.15;;
18455;SDS011;9357;49.900;8.208;2024-02-23T05:56:36;2.83;;;1.67;;
18455;SDS011;9357;49.900;8.208;2024-02-23T05:58:09;3.40;;;1.70;;
18455;SDS011;9357;49.900;8.208;2024-02-23T05:59:41;3.88;;;1.70;;
18455;SDS011;9357;49.900;8.208;2024-02-23T06:01:14;4.15;;;1.90;;
18455;SDS011;9357;49.900;8.208;2024-02-23T06:02:46;1.98;;;1.50;;
18455;SDS011;9357;49.900;8.208;2024-02-23T06:04:19;4.00;;;1.77;;
18455;SDS011;9357;49.900;8.208;2024-02-23T06:05:50;3.90;;;2.03;;
18455;SDS011;9357;49.900;8.208;2024-02-23T06:07:26;2.08;;;1.20;;
18455;SDS011;9357;49.900;8.208;2024-02-23T06:09:00;5.45;;;1.67;;
18455;SDS011;9357;49.900;8.208;2024-02-23T06:10:33;3.42;;;1.45;;
18455;SDS011;9357;49.900;8.208;2024-02-23T06:12:08;2.95;;;1.20;;
18455;SDS011;9357;49.900;8.208;2024-02-23T06:13:40;4.97;;;1.45;;
18455;SDS011;9357;49.900;8.208;2024-02-23T06:15:13;3.00;;;1.20;;
18455;SDS011;9357;49.900;8.208;2024-02-23T06:16:45;5.38;;;1.10;;
18455;SDS011;9357;49.900;8.208;2024-02-23T06:18:17;4.07;;;1.10;;
18455;SDS011;9357;49.900;8.208;2024-02-23T06:19:49;7.38;;;1.52;;
18455;SDS011;9357;49.900;8.208;2024-02-23T06:21:24;3.90;;;1.20;;
18455;SDS011;9357;49.900;8.208;2024-02-23T06:22:57;5.65;;;1.48;;
18455;SDS011;9357;49.900;8.208;2024-02-23T06:24:30;3.30;;;1.23;;
18455;SDS011;9357;49.900;8.208;2024-02-23T06:26:03;4.18;;;1.17;;
18455;SDS011;9357;49.900;8.208;2024-02-23T06:27:36;5.45;;;1.80;;
18455;SDS011;9357;49.900;8.208;2024-02-23T06:29:09;5.90;;;1.40;;
18455;SDS011;9357;49.900;8.208;2024-02-23T06:30:42;2.97;;;1.10;;
18455;SDS011;9357;49.900;8.208;2024-02-23T06:32:15;3.50;;;1.40;;
18455;SDS011;9357;49.900;8.208;2024-02-23T06:33:47;4.32;;;1.00;;
18455;SDS011;9357;49.900;8.208;2024-02-23T06:35:22;3.85;;;1.08;;
18455;SDS011;9357;49.900;8.208;2024-02-23T06:36:54;2.70;;;1.20;;
18455;SDS011;9357;49.900;8.208;2024-02-23T06:38:28;4.38;;;1.27;;
18455;SDS011;9357;49.900;8.208;2024-02-23T06:40:00;3.97;;;1.10;;
18455;SDS011;9357;49.900;8.208;2024-02-23T06:41:33;3.47;;;1.05;;
18455;SDS011;9357;49.900;8.208;2024-02-23T06:43:05;4.78;;;1.08;;
18455;SDS011;9357;49.900;8.208;2024-02-23T06:44:37;3.42;;;1.35;;
18455;SDS011;9357;49.900;8.208;2024-02-23T06:46:09;2.40;;;1.10;;
18455;SDS011;9357;49.900;8.208;2024-02-23T06:47:44;5.07;;;1.55;;
18455;SDS011;9357;49.900;8.208;2024-02-23T06:49:16;3.67;;;0.90;;
18455;SDS011;9357;49.900;8.208;2024-02-23T06:50:49;3.38;;;1.30;;
18455;SDS011;9357;49.900;8.208;2024-02-23T06:52:21;4.53;;;1.27;;
18455;SDS011;9357;49.900;8.208;2024-02-23T06:53:55;5.03;;;1.17;;
18455;SDS011;9357;49.900;8.208;2024-02-23T06:55:27;5.43;;;1.30;;
18455;SDS011;9357;49.900;8.208;2024-02-23T06:57:00;4.45;;;1.00;;
18455;SDS011;9357;49.900;8.208;2024-02-23T06:58:32;6.78;;;1.60;;
18455;SDS011;9357;49.900;8.208;2024-02-23T07:00:05;3.58;;;1.48;;
18455;SDS011;9357;49.900;8.208;2024-02-23T07:01:47;3.83;;;1.60;;
18455;SDS011;9357;49.900;8.208;2024-02-23T07:03:20;2.42;;;1.33;;
18455;SDS011;9357;49.900;8.208;2024-02-23T07:04:52;4.65;;;1.70;;
18455;SDS011;9357;49.900;8.208;2024-02-23T07:06:28;3.70;;;1.50;;
18455;SDS011;9357;49.900;8.208;2024-02-23T07:08:02;3.97;;;1.30;;
18455;SDS011;9357;49.900;8.208;2024-02-23T07:09:37;4.00;;;1.33;;
18455;SDS011;9357;49.900;8.208;2024-02-23T07:11:09;2.75;;;1.15;;
18455;SDS011;9357;49.900;8.208;2024-02-23T07:12:42;3.92;;;1.38;;
18455;SDS011;9357;49.900;8.208;2024-02-23T07:14:15;2.72;;;1.40;;
18455;SDS011;9357;49.900;8.208;2024-02-23T07:15:49;4.88;;;1.40;;
18455;SDS011;9357;49.900;8.208;2024-02-23T07:17:22;5.55;;;1.30;;
18455;SDS011;9357;49.900;8.208;2024-02-23T07:18:54;5.22;;;1.40;;
18455;SDS011;9357;49.900;8.208;2024-02-23T07:20:27;5.60;;;1.30;;
18455;SDS011;9357;49.900;8.208;2024-02-23T07:21:59;6.72;;;1.50;;
18455;SDS011;9357;49.900;8.208;2024-02-23T07:23:33;6.65;;;1.20;;
18455;SDS011;9357;49.900;8.208;2024-02-23T07:25:07;5.32;;;1.10;;
18455;SDS011;9357;49.900;8.208;2024-02-23T07:26:40;4.72;;;1.15;;
18455;SDS011;9357;49.900;8.208;2024-02-23T07:28:12;3.60;;;1.30;;
18455;SDS011;9357;49.900;8.208;2024-02-23T07:29:46;5.10;;;1.35;;
18455;SDS011;9357;49.900;8.208;2024-02-23T07:31:18;4.13;;;1.30;;
18455;SDS011;9357;49.900;8.208;2024-02-23T07:32:51;4.35;;;1.50;;
18455;SDS011;9357;49.900;8.208;2024-02-23T07:34:24;5.13;;;1.38;;
18455;SDS011;9357;49.900;8.208;2024-02-23T07:35:57;6.65;;;1.50;;
18455;SDS011;9357;49.900;8.208;2024-02-23T07:37:29;4.68;;;1.30;;
18455;SDS011;9357;49.900;8.208;2024-02-23T07:39:02;6.05;;;1.17;;
18455;SDS011;9357;49.900;8.208;2024-02-23T07:40:35;3.90;;;1.38;;
18455;SDS011;9357;49.900;8.208;2024-02-23T07:42:08;1.83;;;1.00;;
18455;SDS011;9357;49.900;8.208;2024-02-23T07:43:42;3.65;;;1.33;;
18455;SDS011;9357;49.900;8.208;2024-02-23T07:45:14;6.25;;;1.55;;
18455;SDS011;9357;49.900;8.208;2024-02-23T07:46:46;4.57;;;1.20;;
18455;SDS011;9357;49.900;8.208;2024-02-23T07:48:19;2.65;;;1.13;;
18455;SDS011;9357;49.900;8.208;2024-02-23T07:49:51;3.50;;;1.20;;
18455;SDS011;9357;49.900;8.208;2024-02-23T07:51:24;4.15;;;1.55;;
18455;SDS011;9357;49.900;8.208;2024-02-23T07:52:56;4.25;;;1.20;;
18455;SDS011;9357;49.900;8.208;2024-02-23T07:54:29;4.05;;;1.40;;
18455;SDS011;9357;49.900;8.208;2024-02-23T07:56:02;4.38;;;1.52;;
18455;SDS011;9357;49.900;8.208;2024-02-23T07:57:36;5.15;;;1.15;;
18455;SDS011;9357;49.900;8.208;2024-02-23T07:59:09;5.25;;;1.30;;
18455;SDS011;9357;49.900;8.208;2024-02-23T08:00:42;5.32;;;1.58;;
18455;SDS011;9357;49.900;8.208;2024-02-23T08:02:14;8.20;;;1.52;;
18455;SDS011;9357;49.900;8.208;2024-02-23T08:03:47;6.55;;;1.40;;
18455;SDS011;9357;49.900;8.208;2024-02-23T08:05:20;5.22;;;1.13;;
18455;SDS011;9357;49.900;8.208;2024-02-23T08:06:52;5.55;;;1.38;;
18455;SDS011;9357;49.900;8.208;2024-02-23T08:08:24;5.20;;;1.60;;
18455;SDS011;9357;49.900;8.208;2024-02-23T08:09:59;3.30;;;1.40;;
18455;SDS011;9357;49.900;8.208;2024-02-23T08:11:33;5.90;;;1.50;;
18455;SDS011;9357;49.900;8.208;2024-02-23T08:13:07;6.25;;;1.38;;
18455;SDS011;9357;49.900;8.208;2024-02-23T08:14:41;4.63;;;1.40;;
18455;SDS011;9357;49.900;8.208;2024-02-23T08:16:15;4.32;;;1.20;;
18455;SDS011;9357;49.900;8.208;2024-02-23T08:17:48;4.82;;;1.25;;
18455;SDS011;9357;49.900;8.208;2024-02-23T08:19:20;4.30;;;1.52;;
18455;SDS011;9357;49.900;8.208;2024-02-23T08:20:53;7.28;;;1.55;;
18455;SDS011;9357;49.900;8.208;2024-02-23T08:22:25;7.22;;;1.75;;
18455;SDS011;9357;49.900;8.208;2024-02-23T08:23:59;4.65;;;1.55;;
18455;SDS011;9357;49.900;8.208;2024-02-23T08:25:31;5.35;;;1.50;;
18455;SDS011;9357;49.900;8.208;2024-02-23T08:27:05;7.53;;;1.65;;
18455;SDS011;9357;49.900;8.208;2024-02-23T08:28:37;6.60;;;1.55;;
18455;SDS011;9357;49.900;8.208;2024-02-23T08:30:10;5.72;;;1.25;;
18455;SDS011;9357;49.900;8.208;2024-02-23T08:31:42;5.90;;;1.60;;
18455;SDS011;9357;49.900;8.208;2024-02-23T08:33:15;4.57;;;1.40;;
18455;SDS011;9357;49.900;8.208;2024-02-23T08:34:46;4.93;;;1.30;;
18455;SDS011;9357;49.900;8.208;2024-02-23T08:36:19;6.82;;;1.48;;
18455;SDS011;9357;49.900;8.208;2024-02-23T08:37:51;7.10;;;1.52;;
18455;SDS011;9357;49.900;8.208;2024-02-23T08:39:24;6.82;;;1.65;;
18455;SDS011;9357;49.900;8.208;2024-02-23T08:40:56;6.75;;;1.63;;
18455;SDS011;9357;49.900;8.208;2024-02-23T08:42:31;5.22;;;1.55;;
18455;SDS011;9357;49.900;8.208;2024-02-23T08:44:03;7.70;;;1.65;;
18455;SDS011;9357;49.900;8.208;2024-02-23T08:45:36;5.60;;;1.73;;
18455;SDS011;9357;49.900;8.208;2024-02-23T08:47:07;5.13;;;1.30;;
18455;SDS011;9357;49.900;8.208;2024-02-23T08:48:40;6.63;;;1.30;;
18455;SDS011;9357;49.900;8.208;2024-02-23T08:50:13;7.32;;;1.77;;
18455;SDS011;9357;49.900;8.208;2024-02-23T08:51:46;4.68;;;1.67;;
18455;SDS011;9357;49.900;8.208;2024-02-23T08:53:18;6.38;;;1.80;;
18455;SDS011;9357;49.900;8.208;2024-02-23T08:54:51;5.50;;;1.30;;
18455;SDS011;9357;49.900;8.208;2024-02-23T08:56:23;6.25;;;1.70;;
18455;SDS011;9357;49.900;8.208;2024-02-23T08:57:57;4.80;;;1.40;;
18455;SDS011;9357;49.900;8.208;2024-02-23T08:59:29;4.80;;;1.30;;
18455;SDS011;9357;49.900;8.208;2024-02-23T09:01:02;4.88;;;1.23;;
18455;SDS011;9357;49.900;8.208;2024-02-23T09:02:35;9.93;;;1.75;;
18455;SDS011;9357;49.900;8.208;2024-02-23T09:04:09;8.35;;;1.52;;
18455;SDS011;9357;49.900;8.208;2024-02-23T09:05:41;4.32;;;1.10;;
18455;SDS011;9357;49.900;8.208;2024-02-23T09:07:14;8.27;;;1.92;;
18455;SDS011;9357;49.900;8.208;2024-02-23T09:08:46;5.97;;;1.35;;
18455;SDS011;9357;49.900;8.208;2024-02-23T09:10:19;9.38;;;1.52;;
18455;SDS011;9357;49.900;8.208;2024-02-23T09:11:51;5.65;;;1.35;;
18455;SDS011;9357;49.900;8.208;2024-02-23T09:13:25;6.28;;;1.45;;
18455;SDS011;9357;49.900;8.208;2024-02-23T09:14:58;6.38;;;1.70;;
18455;SDS011;9357;49.900;8.208;2024-02-23T09:16:30;5.57;;;1.20;;
18455;SDS011;9357;49.900;8.208;2024-02-23T09:18:03;4.32;;;1.45;;
18455;SDS011;9357;49.900;8.208;2024-02-23T09:19:36;1.95;;;1.00;;
18455;SDS011;9357;49.900;8.208;2024-02-23T09:21:08;7.07;;;1.30;;
18455;SDS011;9357;49.900;8.208;2024-02-23T09:22:41;4.88;;;1.40;;
18455;SDS011;9357;49.900;8.208;2024-02-23T09:24:13;4.90;;;1.15;;
18455;SDS011;9357;49.900;8.208;2024-02-23T09:25:46;5.93;;;1.55;;
18455;SDS011;9357;49.900;8.208;2024-02-23T09:27:20;6.32;;;1.73;;